sensor_id;sensor_type;location;lat;lon;timestamp;pressure;altitude;pressure_sealevel;temperature;humidity
7614;BME280;3848;42.016;23.098;2023-03-04T00:00:10;97126.19;;;7.86;100.00
7614;BME280;3848;42.016;23.098;2023-03-04T00:02:38;97124.50;;;7.79;100.00
7614;BME280;3848;42.016;23.098;2023-03-04T00:05:06;97121.97;;;7.81;100.00
7614;BME280;3848;42.016;23.098;2023-03-04T00:07:33;97111.88;;;7.78;100.00
7614;BME280;3848;42.016;23.098;2023-03-04T00:09:59;97127.03;;;7.87;100.00
7614;BME280;3848;42.016;23.098;2023-03-04T00:12:26;97131.25;;;7.86;100.00
7614;BME280;3848;42.016;23.098;2023-03-04T00:14:53;97122.84;;;7.87;100.00
7614;BME280;3848;42.016;23.098;2023-03-04T00:17:20;97111.03;;;7.83;100.00
7614;BME280;3848;42.016;23.098;2023-03-04T00:19:48;97115.28;;;7.93;100.00
7614;BME280;3848;42.016;23.098;2023-03-04T00:22:15;97105.16;;;7.93;100.00
7614;BME280;3848;42.016;23.098;2023-03-04T00:24:42;97106.84;;;7.98;100.00
7614;BME280;3848;42.016;23.098;2023-03-04T00:27:09;97105.16;;;7.92;100.00
7614;BME280;3848;42.016;23.098;2023-03-04T00:29:35;97107.66;;;7.84;100.00
7614;BME280;3848;42.016;23.098;2023-03-04T00:32:02;97098.38;;;7.82;100.00
7614;BME280;3848;42.016;23.098;2023-03-04T00:34:30;97109.34;;;7.85;100.00
7614;BME280;3848;42.016;23.098;2023-03-04T00:36:58;97104.28;;;7.87;100.00
7614;BME280;3848;42.016;23.098;2023-03-04T00:39:26;97105.13;;;7.89;100.00
7614;BME280;3848;42.016;23.098;2023-03-04T00:41:52;97104.28;;;7.90;100.00
7614;BME280;3848;42.016;23.098;2023-03-04T00:44:19;97109.34;;;7.88;100.00
7614;BME280;3848;42.016;23.098;2023-03-04T00:46:46;97103.47;;;7.94;100.00
7614;BME280;3848;42.016;23.098;2023-03-04T00:49:13;97093.34;;;7.92;100.00
7614;BME280;3848;42.016;23.098;2023-03-04T00:51:39;97100.94;;;8.02;100.00
7614;BME280;3848;42.016;23.098;2023-03-04T00:54:08;97108.53;;;8.05;100.00
7614;BME280;3848;42.016;23.098;2023-03-04T00:56:34;97101.78;;;8.10;100.00
7614;BME280;3848;42.016;23.098;2023-03-04T00:59:01;97079.03;;;7.96;100.00
7614;BME280;3848;42.016;23.098;2023-03-04T01:01:28;97081.53;;;7.93;100.00
7614;BME280;3848;42.016;23.098;2023-03-04T01:03:55;97102.63;;;8.09;100.00
7614;BME280;3848;42.016;23.098;2023-03-04T01:06:21;97089.13;;;7.98;100.00
7614;BME280;3848;42.016;23.098;2023-03-04T01:08:48;97102.63;;;8.12;100.00
7614;BME280;3848;42.016;23.098;2023-03-04T01:11:16;97100.94;;;8.09;100.00
7614;BME280;3848;42.016;23.098;2023-03-04T01:13:43;97101.78;;;8.07;100.00
7614;BME280;3848;42.016;23.098;2023-03-04T01:18:55;97105.16;;;8.03;100.00
7614;BME280;3848;42.016;23.098;2023-03-04T01:21:22;97085.75;;;7.95;100.00
7614;BME280;3848;42.016;23.098;2023-03-04T01:23:49;97097.56;;;8.10;100.00
7614;BME280;3848;42.016;23.098;2023-03-04T01:26:17;97084.91;;;8.03;100.00
7614;BME280;3848;42.016;23.098;2023-03-04T01:28:44;97091.69;;;8.13;100.00
7614;BME280;3848;42.016;23.098;2023-03-04T01:31:10;97083.25;;;8.14;100.00
7614;BME280;3848;42.016;23.098;2023-03-04T01:33:37;97090.81;;;8.06;100.00
7614;BME280;3848;42.016;23.098;2023-03-04T01:36:04;97079.84;;;8.06;100.00
7614;BME280;3848;42.016;23.098;2023-03-04T01:38:31;97083.22;;;8.02;100.00
7614;BME280;3848;42.016;23.098;2023-03-04T01:40:58;97071.44;;;7.99;100.00
7614;BME280;3848;42.016;23.098;2023-03-04T01:43:28;97069.72;;;7.87;100.00
7614;BME280;3848;42.016;23.098;2023-03-04T01:45:56;97076.50;;;7.91;100.00
7614;BME280;3848;42.016;23.098;2023-03-04T01:48:25;97073.13;;;7.92;100.00
7614;BME280;3848;42.016;23.098;2023-03-04T01:50:52;97075.66;;;7.94;100.00
7614;BME280;3848;42.016;23.098;2023-03-04T01:53:21;97072.28;;;7.92;100.00
7614;BME280;3848;42.016;23.098;2023-03-04T01:55:49;97066.34;;;7.90;100.00
7614;BME280;3848;42.016;23.098;2023-03-04T01:58:17;97062.13;;;7.87;100.00
7614;BME280;3848;42.016;23.098;2023-03-04T02:00:45;97048.63;;;7.78;100.00
7614;BME280;3848;42.016;23.098;2023-03-04T02:03:14;97048.63;;;7.73;100.00
7614;BME280;3848;42.016;23.098;2023-03-04T02:05:43;97045.25;;;7.73;100.00
7614;BME280;3848;42.016;23.098;2023-03-04T02:08:12;97049.47;;;7.72;100.00
7614;BME280;3848;42.016;23.098;2023-03-04T02:10:41;97052.81;;;7.65;100.00
7614;BME280;3848;42.016;23.098;2023-03-04T02:13:09;97046.06;;;7.64;100.00
7614;BME280;3848;42.016;23.098;2023-03-04T02:15:37;97045.22;;;7.59;100.00
7614;BME280;3848;42.016;23.098;2023-03-04T02:18:14;97032.56;;;7.50;100.00
7614;BME280;3848;42.016;23.098;2023-03-04T02:20:47;97047.72;;;7.47;100.00
7614;BME280;3848;42.016;23.098;2023-03-04T02:23:19;97046.00;;;7.43;100.00
7614;BME280;3848;42.016;23.098;2023-03-04T02:28:22;97043.41;;;7.20;100.00
7614;BME280;3848;42.016;23.098;2023-03-04T02:30:48;97040.88;;;7.15;100.00
7614;BME280;3848;42.016;23.098;2023-03-04T02:33:16;97035.78;;;7.08;100.00
7614;BME280;3848;42.016;23.098;2023-03-04T02:35:44;97023.94;;;6.93;100.00
7614;BME280;3848;42.016;23.098;2023-03-04T02:38:11;97039.97;;;7.01;100.00
7614;BME280;3848;42.016;23.098;2023-03-04T02:40:41;97039.13;;;6.99;100.00
7614;BME280;3848;42.016;23.098;2023-03-04T02:43:10;97040.81;;;6.97;100.00
7614;BME280;3848;42.016;23.098;2023-03-04T02:45:44;97036.63;;;7.07;100.00
7614;BME280;3848;42.016;23.098;2023-03-04T02:48:12;97032.41;;;7.04;100.00
7614;BME280;3848;42.016;23.098;2023-03-04T02:50:42;97039.19;;;7.13;100.00
7614;BME280;3848;42.016;23.098;2023-03-04T02:53:10;97037.53;;;7.19;100.00
7614;BME280;3848;42.016;23.098;2023-03-04T02:55:36;97014.75;;;7.10;100.00
7614;BME280;3848;42.016;23.098;2023-03-04T02:58:04;97027.41;;;7.10;100.00
7614;BME280;3848;42.016;23.098;2023-03-04T03:00:30;97044.25;;;7.11;100.00
7614;BME280;3848;42.016;23.098;2023-03-04T03:02:58;97048.47;;;7.18;100.00
7614;BME280;3848;42.016;23.098;2023-03-04T03:05:27;97038.38;;;7.23;100.00
7614;BME280;3848;42.016;23.098;2023-03-04T03:07:55;97043.41;;;7.20;100.00
7614;BME280;3848;42.016;23.098;2023-03-04T03:10:22;97034.97;;;7.12;100.00
7614;BME280;3848;42.016;23.098;2023-03-04T03:12:48;97043.41;;;7.15;100.00
7614;BME280;3848;42.016;23.098;2023-03-04T03:15:16;97037.47;;;7.07;100.00
7614;BME280;3848;42.016;23.098;2023-03-04T03:17:43;97038.28;;;7.01;100.00
7614;BME280;3848;42.016;23.098;2023-03-04T03:20:12;97034.06;;;6.93;100.00
7614;BME280;3848;42.016;23.098;2023-03-04T03:22:39;97034.00;;;6.84;100.00
7614;BME280;3848;42.016;23.098;2023-03-04T03:25:07;97037.34;;;6.83;100.00
7614;BME280;3848;42.016;23.098;2023-03-04T03:27:35;97034.00;;;6.87;100.00
7614;BME280;3848;42.016;23.098;2023-03-04T03:30:02;97027.25;;;6.81;100.00
7614;BME280;3848;42.016;23.098;2023-03-04T03:32:29;97029.78;;;6.84;100.00
7614;BME280;3848;42.016;23.098;2023-03-04T03:34:56;97045.84;;;6.91;100.00
7614;BME280;3848;42.016;23.098;2023-03-04T03:37:24;97043.28;;;6.88;100.00
7614;BME280;3848;42.016;23.098;2023-03-04T03:39:51;97039.03;;;6.85;100.00
7614;BME280;3848;42.016;23.098;2023-03-04T03:42:18;97017.97;;;6.76;100.00
7614;BME280;3848;42.016;23.098;2023-03-04T03:44:44;97031.47;;;6.84;100.00
7614;BME280;3848;42.016;23.098;2023-03-04T03:47:11;97034.84;;;6.84;100.00
7614;BME280;3848;42.016;23.098;2023-03-04T03:49:38;97025.56;;;6.79;100.00
7614;BME280;3848;42.016;23.098;2023-03-04T03:52:05;97013.75;;;6.71;100.00
7614;BME280;3848;42.016;23.098;2023-03-04T03:54:34;97028.03;;;6.69;100.00
7614;BME280;3848;42.016;23.098;2023-03-04T03:57:00;97033.09;;;6.69;100.00
7614;BME280;3848;42.016;23.098;2023-03-04T03:59:27;97028.88;;;6.68;100.00
7614;BME280;3848;42.016;23.098;2023-03-04T04:01:54;97036.47;;;6.71;100.00
7614;BME280;3848;42.016;23.098;2023-03-04T04:04:21;96996.75;;;6.45;100.00
7614;BME280;3848;42.016;23.098;2023-03-04T04:06:47;97028.88;;;6.68;100.00
7614;BME280;3848;42.016;23.098;2023-03-04T04:09:14;97030.56;;;6.69;100.00
7614;BME280;3848;42.016;23.098;2023-03-04T04:11:42;97038.16;;;6.74;100.00
7614;BME280;3848;42.016;23.098;2023-03-04T04:14:10;97037.34;;;6.77;100.00
7614;BME280;3848;42.016;23.098;2023-03-04T04:16:38;97034.78;;;6.72;100.00
7614;BME280;3848;42.016;23.098;2023-03-04T04:19:05;97028.81;;;6.62;100.00
7614;BME280;3848;42.016;23.098;2023-03-04T04:21:32;97039.84;;;6.75;100.00
7614;BME280;3848;42.016;23.098;2023-03-04T04:23:59;97040.66;;;6.69;100.00
7614;BME280;3848;42.016;23.098;2023-03-04T04:26:26;97043.19;;;6.68;100.00
7614;BME280;3848;42.016;23.098;2023-03-04T04:28:54;97041.50;;;6.67;100.00
7614;BME280;3848;42.016;23.098;2023-03-04T04:31:21;97046.50;;;6.64;100.00
7614;BME280;3848;42.016;23.098;2023-03-04T04:33:47;97042.31;;;6.66;100.00
7614;BME280;3848;42.016;23.098;2023-03-04T04:36:15;97049.91;;;6.67;100.00
7614;BME280;3848;42.016;23.098;2023-03-04T04:38:42;97033.03;;;6.60;100.00
7614;BME280;3848;42.016;23.098;2023-03-04T04:41:17;97040.59;;;6.57;100.00
7614;BME280;3848;42.016;23.098;2023-03-04T04:43:45;97043.97;;;6.59;100.00
7614;BME280;3848;42.016;23.098;2023-03-04T04:46:13;97042.31;;;6.64;100.00
7614;BME280;3848;42.016;23.098;2023-03-04T04:48:40;97042.31;;;6.64;100.00
7614;BME280;3848;42.016;23.098;2023-03-04T04:51:07;97040.66;;;6.66;100.00
7614;BME280;3848;42.016;23.098;2023-03-04T04:53:34;97045.72;;;6.69;100.00
7614;BME280;3848;42.016;23.098;2023-03-04T04:56:07;97049.09;;;6.68;100.00
7614;BME280;3848;42.016;23.098;2023-03-04T04:58:35;97040.59;;;6.57;100.00
7614;BME280;3848;42.016;23.098;2023-03-04T05:01:02;97043.13;;;6.60;100.00
7614;BME280;3848;42.016;23.098;2023-03-04T05:03:31;97042.28;;;6.61;100.00
7614;BME280;3848;42.016;23.098;2023-03-04T05:05:58;97040.59;;;6.62;100.00
7614;BME280;3848;42.016;23.098;2023-03-04T05:08:24;97045.72;;;6.66;100.00
7614;BME280;3848;42.016;23.098;2023-03-04T05:10:51;97044.81;;;6.61;100.00
7614;BME280;3848;42.016;23.098;2023-03-04T05:13:18;97054.91;;;6.60;100.00
7614;BME280;3848;42.016;23.098;2023-03-04T05:15:45;97050.69;;;6.57;100.00
7614;BME280;3848;42.016;23.098;2023-03-04T05:18:12;97052.38;;;6.61;100.00
7614;BME280;3848;42.016;23.098;2023-03-04T05:20:40;97055.72;;;6.57;100.00
7614;BME280;3848;42.016;23.098;2023-03-04T05:23:07;97055.72;;;6.57;100.00
7614;BME280;3848;42.016;23.098;2023-03-04T05:25:34;97031.22;;;6.42;100.00
7614;BME280;3848;42.016;23.098;2023-03-04T05:28:01;97058.28;;;6.60;100.00
7614;BME280;3848;42.016;23.098;2023-03-04T05:30:29;97059.13;;;6.62;100.00
7614;BME280;3848;42.016;23.098;2023-03-04T05:32:56;97060.81;;;6.63;100.00
7614;BME280;3848;42.016;23.098;2023-03-04T05:35:23;97057.50;;;6.69;100.00
7614;BME280;3848;42.016;23.098;2023-03-04T05:37:51;97058.34;;;6.68;100.00
7614;BME280;3848;42.016;23.098;2023-03-04T05:40:18;97062.56;;;6.73;100.00
7614;BME280;3848;42.016;23.098;2023-03-04T05:42:44;96950.28;;;6.06;100.00
7614;BME280;3848;42.016;23.098;2023-03-04T05:45:11;97062.59;;;6.77;100.00
7614;BME280;3848;42.016;23.098;2023-03-04T05:47:38;97041.50;;;6.67;100.00
7614;BME280;3848;42.016;23.098;2023-03-04T05:50:06;97064.28;;;6.82;100.00
7614;BME280;3848;42.016;23.098;2023-03-04T05:52:32;97076.94;;;6.87;100.00
7614;BME280;3848;42.016;23.098;2023-03-04T05:55:01;97068.56;;;6.88;100.00
7614;BME280;3848;42.016;23.098;2023-03-04T05:57:27;97076.13;;;6.89;100.00
7614;BME280;3848;42.016;23.098;2023-03-04T05:59:54;97066.03;;;6.94;100.00
7614;BME280;3848;42.016;23.098;2023-03-04T06:02:21;97072.78;;;6.98;100.00
7614;BME280;3848;42.016;23.098;2023-03-04T06:04:48;97073.66;;;7.01;100.00
7614;BME280;3848;42.016;23.098;2023-03-04T06:07:14;97076.19;;;7.03;100.00
7614;BME280;3848;42.016;23.098;2023-03-04T06:09:41;97080.41;;;7.06;100.00
7614;BME280;3848;42.016;23.098;2023-03-04T06:12:10;97079.56;;;7.03;100.00
7614;BME280;3848;42.016;23.098;2023-03-04T06:14:37;97077.88;;;7.04;100.00
7614;BME280;3848;42.016;23.098;2023-03-04T06:17:04;97082.09;;;7.07;100.00
7614;BME280;3848;42.016;23.098;2023-03-04T06:19:31;97087.19;;;7.14;100.00
7614;BME280;3848;42.016;23.098;2023-03-04T06:21:58;97088.91;;;7.20;100.00
7614;BME280;3848;42.016;23.098;2023-03-04T06:24:24;97078.78;;;7.12;100.00
7614;BME280;3848;42.016;23.098;2023-03-04T06:26:52;97082.19;;;7.28;100.00
7614;BME280;3848;42.016;23.098;2023-03-04T06:29:21;97088.97;;;7.32;100.00
7614;BME280;3848;42.016;23.098;2023-03-04T06:31:48;97094.88;;;7.39;100.00
7614;BME280;3848;42.016;23.098;2023-03-04T06:34:14;97094.91;;;7.46;100.00
7614;BME280;3848;42.016;23.098;2023-03-04T06:36:41;97092.41;;;7.52;100.00
7614;BME280;3848;42.016;23.098;2023-03-04T06:39:08;97095.78;;;7.60;100.00
7614;BME280;3848;42.016;23.098;2023-03-04T06:41:35;97089.03;;;7.56;100.00
7614;BME280;3848;42.016;23.098;2023-03-04T06:44:02;97100.84;;;7.70;100.00
7614;BME280;3848;42.016;23.098;2023-03-04T06:46:31;97086.53;;;7.64;100.00
7614;BME280;3848;42.016;23.098;2023-03-04T06:48:58;97105.13;;;7.78;100.00
7614;BME280;3848;42.016;23.098;2023-03-04T06:51:26;97081.47;;;7.70;100.00
7614;BME280;3848;42.016;23.098;2023-03-04T06:53:53;97105.13;;;7.87;100.00
7614;BME280;3848;42.016;23.098;2023-03-04T06:56:20;97099.22;;;7.90;100.00
7614;BME280;3848;42.016;23.098;2023-03-04T06:58:46;97078.13;;;7.77;100.00
7614;BME280;3848;42.016;23.098;2023-03-04T07:01:15;97099.25;;;7.93;100.00
7614;BME280;3848;42.016;23.098;2023-03-04T07:03:44;97102.63;;;8.00;100.00
7614;BME280;3848;42.016;23.098;2023-03-04T07:06:11;97059.56;;;7.69;100.00
7614;BME280;3848;42.016;23.098;2023-03-04T07:08:39;97108.53;;;8.00;100.00
7614;BME280;3848;42.016;23.098;2023-03-04T07:11:06;97105.16;;;8.10;100.00
7614;BME280;3848;42.016;23.098;2023-03-04T07:13:33;97097.56;;;8.07;100.00
7614;BME280;3848;42.016;23.098;2023-03-04T07:16:03;97106.88;;;8.22;100.00
7614;BME280;3848;42.016;23.098;2023-03-04T07:18:29;97108.59;;;8.35;100.00
7614;BME280;3848;42.016;23.098;2023-03-04T07:20:58;97101.84;;;8.34;100.00
7614;BME280;3848;42.016;23.098;2023-03-04T07:23:25;97093.41;;;8.38;100.00
7614;BME280;3848;42.016;23.098;2023-03-04T07:25:51;97097.63;;;8.45;100.00
7614;BME280;3848;42.016;23.098;2023-03-04T07:28:18;97116.19;;;8.52;100.00
7614;BME280;3848;42.016;23.098;2023-03-04T07:30:45;97107.75;;;8.62;100.00
7614;BME280;3848;42.016;23.098;2023-03-04T07:33:12;97114.47;;;8.74;100.00
7614;BME280;3848;42.016;23.098;2023-03-04T07:35:39;97107.75;;;8.59;100.00
7614;BME280;3848;42.016;23.098;2023-03-04T07:38:07;97105.19;;;8.67;100.00
7614;BME280;3848;42.016;23.098;2023-03-04T07:40:34;97100.97;;;8.70;100.00
7614;BME280;3848;42.016;23.098;2023-03-04T07:43:01;97101.81;;;8.72;100.00
7614;BME280;3848;42.016;23.098;2023-03-04T07:45:28;97106.91;;;8.77;100.00
7614;BME280;3848;42.016;23.098;2023-03-04T07:47:56;97099.28;;;8.77;100.00
7614;BME280;3848;42.016;23.098;2023-03-04T07:50:23;97102.63;;;8.88;100.00
7614;BME280;3848;42.016;23.098;2023-03-04T07:52:50;97101.78;;;8.92;100.00
7614;BME280;3848;42.016;23.098;2023-03-04T07:55:19;97111.06;;;8.92;100.00
7614;BME280;3848;42.016;23.098;2023-03-04T07:57:46;97115.28;;;8.93;100.00
7614;BME280;3848;42.016;23.098;2023-03-04T08:00:15;97115.28;;;9.00;100.00
7614;BME280;3848;42.016;23.098;2023-03-04T08:02:42;97122.88;;;9.09;100.00
7614;BME280;3848;42.016;23.098;2023-03-04T08:05:09;97121.19;;;9.02;100.00
7614;BME280;3848;42.016;23.098;2023-03-04T08:07:36;97114.44;;;9.03;100.00
7614;BME280;3848;42.016;23.098;2023-03-04T08:10:04;97119.50;;;9.07;100.00
7614;BME280;3848;42.016;23.098;2023-03-04T08:12:32;97111.06;;;9.02;100.00
7614;BME280;3848;42.016;23.098;2023-03-04T08:14:59;97102.63;;;8.91;100.00
7614;BME280;3848;42.016;23.098;2023-03-04T08:17:26;97111.06;;;9.01;100.00
7614;BME280;3848;42.016;23.098;2023-03-04T08:19:54;97105.16;;;8.93;100.00
7614;BME280;3848;42.016;23.098;2023-03-04T08:22:21;97095.06;;;8.82;100.00
7614;BME280;3848;42.016;23.098;2023-03-04T08:24:47;97105.16;;;8.94;100.00
7614;BME280;3848;42.016;23.098;2023-03-04T08:27:14;97105.97;;;9.05;100.00
7614;BME280;3848;42.016;23.098;2023-03-04T08:29:43;97056.22;;;8.80;100.00
7614;BME280;3848;42.016;23.098;2023-03-04T08:32:09;97108.47;;;9.14;100.00
7614;BME280;3848;42.016;23.098;2023-03-04T08:34:38;97108.47;;;9.14;100.00
7614;BME280;3848;42.016;23.098;2023-03-04T08:37:05;97104.28;;;9.16;100.00
7614;BME280;3848;42.016;23.098;2023-03-04T08:39:32;97107.66;;;9.09;100.00
7614;BME280;3848;42.016;23.098;2023-03-04T08:42:00;97102.59;;;9.11;100.00
7614;BME280;3848;42.016;23.098;2023-03-04T08:44:27;97097.50;;;9.20;100.00
7614;BME280;3848;42.016;23.098;2023-03-04T08:46:55;97100.03;;;9.19;100.00
7614;BME280;3848;42.016;23.098;2023-03-04T08:49:22;97101.75;;;9.16;100.00
7614;BME280;3848;42.016;23.098;2023-03-04T08:51:49;97100.03;;;9.22;100.00
7614;BME280;3848;42.016;23.098;2023-03-04T08:54:15;97098.34;;;9.16;100.00
7614;BME280;3848;42.016;23.098;2023-03-04T08:56:42;97095.81;;;9.19;100.00
7614;BME280;3848;42.016;23.098;2023-03-04T08:59:09;97100.88;;;9.14;100.00
7614;BME280;3848;42.016;23.098;2023-03-04T09:01:36;97095.81;;;9.19;100.00
7614;BME280;3848;42.016;23.098;2023-03-04T09:04:04;97100.03;;;9.14;100.00
7614;BME280;3848;42.016;23.098;2023-03-04T09:06:31;97112.72;;;9.22;100.00
7614;BME280;3848;42.016;23.098;2023-03-04T09:08:58;97084.84;;;9.09;100.00
7614;BME280;3848;42.016;23.098;2023-03-04T09:11:25;97037.63;;;8.85;100.00
7614;BME280;3848;42.016;23.098;2023-03-04T09:13:52;97097.50;;;9.15;100.00
7614;BME280;3848;42.016;23.098;2023-03-04T09:16:18;97092.41;;;9.26;100.00
7614;BME280;3848;42.016;23.098;2023-03-04T09:18:45;97094.91;;;9.34;100.00
7614;BME280;3848;42.016;23.098;2023-03-04T09:21:14;97091.56;;;9.23;100.00
7614;BME280;3848;42.016;23.098;2023-03-04T09:23:41;97095.78;;;9.25;100.00
7614;BME280;3848;42.016;23.098;2023-03-04T09:26:17;97087.28;;;9.34;100.00
7614;BME280;3848;42.016;23.098;2023-03-04T09:28:44;97093.19;;;9.36;100.00
7614;BME280;3848;42.016;23.098;2023-03-04T09:31:12;97092.38;;;9.38;100.00
7614;BME280;3848;42.016;23.098;2023-03-04T09:33:39;97089.00;;;9.32;100.00
7614;BME280;3848;42.016;23.098;2023-03-04T09:36:08;97084.78;;;9.31;100.00
7614;BME280;3848;42.016;23.098;2023-03-04T09:38:37;97088.97;;;9.35;100.00
7614;BME280;3848;42.016;23.098;2023-03-04T09:41:06;97087.28;;;9.38;100.00
7614;BME280;3848;42.016;23.098;2023-03-04T09:43:34;97084.72;;;9.44;100.00
7614;BME280;3848;42.016;23.098;2023-03-04T09:46:05;97084.69;;;9.49;100.00
7614;BME280;3848;42.016;23.098;2023-03-04T09:48:39;97082.16;;;9.51;100.00
7614;BME280;3848;42.016;23.098;2023-03-04T09:51:18;97081.25;;;9.64;100.00
7614;BME280;3848;42.016;23.098;2023-03-04T09:53:58;97081.25;;;9.62;100.00
7614;BME280;3848;42.016;23.098;2023-03-04T09:56:30;97067.75;;;9.54;100.00
7614;BME280;3848;42.016;23.098;2023-03-04T09:59:04;97080.44;;;9.60;100.00
7614;BME280;3848;42.016;23.098;2023-03-04T10:01:37;97071.97;;;9.60;100.00
7614;BME280;3848;42.016;23.098;2023-03-04T10:04:12;97073.66;;;9.56;100.00
7614;BME280;3848;42.016;23.098;2023-03-04T10:06:41;97073.66;;;9.55;100.00
7614;BME280;3848;42.016;23.098;2023-03-04T10:09:13;97070.28;;;9.57;100.00
7614;BME280;3848;42.016;23.098;2023-03-04T10:11:43;97073.66;;;9.58;100.00
7614;BME280;3848;42.016;23.098;2023-03-04T10:14:23;97063.53;;;9.55;100.00
7614;BME280;3848;42.016;23.098;2023-03-04T10:16:56;97068.59;;;9.62;100.00
7614;BME280;3848;42.016;23.098;2023-03-04T10:19:30;97067.72;;;9.65;100.00
7614;BME280;3848;42.016;23.098;2023-03-04T10:22:13;97008.69;;;9.34;100.00
7614;BME280;3848;42.016;23.098;2023-03-04T10:24:43;97064.34;;;9.64;100.00
7614;BME280;3848;42.016;23.098;2023-03-04T10:27:14;97056.81;;;9.46;100.00
7614;BME280;3848;42.016;23.098;2023-03-04T10:29:42;97051.78;;;9.37;100.00
7614;BME280;3848;42.016;23.098;2023-03-04T10:32:11;97042.53;;;9.28;100.00
7614;BME280;3848;42.016;23.098;2023-03-04T10:34:39;96930.50;;;8.58;100.00
7614;BME280;3848;42.016;23.098;2023-03-04T10:37:06;97043.38;;;9.26;100.00
7614;BME280;3848;42.016;23.098;2023-03-04T10:39:37;97038.28;;;9.32;100.00
7614;BME280;3848;42.016;23.098;2023-03-04T10:42:22;96975.03;;;9.06;100.00
7614;BME280;3848;42.016;23.098;2023-03-04T10:44:51;97029.78;;;9.45;100.00
7614;BME280;3848;42.016;23.098;2023-03-04T10:47:22;97021.31;;;9.44;100.00
7614;BME280;3848;42.016;23.098;2023-03-04T10:49:51;97018.00;;;9.33;100.00
7614;BME280;3848;42.016;23.098;2023-03-04T10:52:26;97023.03;;;9.41;100.00
7614;BME280;3848;42.016;23.098;2023-03-04T10:54:54;97006.16;;;9.40;100.00
7614;BME280;3848;42.016;23.098;2023-03-04T10:57:27;97008.56;;;9.58;100.00
7614;BME280;3848;42.016;23.098;2023-03-04T10:59:57;97010.19;;;9.70;100.00
7614;BME280;3848;42.016;23.098;2023-03-04T11:02:27;97003.34;;;9.78;100.00
7614;BME280;3848;42.016;23.098;2023-03-04T11:05:01;97002.44;;;9.87;100.00
7614;BME280;3848;42.016;23.098;2023-03-04T11:07:31;97001.53;;;9.94;100.00
7614;BME280;3848;42.016;23.098;2023-03-04T11:10:07;96989.69;;;9.93;100.00
7614;BME280;3848;42.016;23.098;2023-03-04T11:12:35;96874.41;;;9.22;100.00
7614;BME280;3848;42.016;23.098;2023-03-04T11:15:03;96981.44;;;9.69;100.00
7614;BME280;3848;42.016;23.098;2023-03-04T11:17:44;96969.63;;;9.64;100.00
7614;BME280;3848;42.016;23.098;2023-03-04T11:20:17;96969.50;;;9.77;100.00
7614;BME280;3848;42.016;23.098;2023-03-04T11:22:49;96967.66;;;9.98;100.00
7614;BME280;3848;42.016;23.098;2023-03-04T11:25:24;96969.16;;;10.19;100.00
7614;BME280;3848;42.016;23.098;2023-03-04T11:27:55;96942.88;;;10.29;100.00
7614;BME280;3848;42.016;23.098;2023-03-04T11:30:43;96956.94;;;10.59;100.00
7614;BME280;3848;42.016;23.098;2023-03-04T11:33:25;96954.22;;;10.76;100.00
7614;BME280;3848;42.016;23.098;2023-03-04T11:36:05;96946.41;;;10.91;100.00
7614;BME280;3848;42.016;23.098;2023-03-04T11:38:38;96952.25;;;10.99;100.00
7614;BME280;3848;42.016;23.098;2023-03-04T11:41:10;96943.69;;;11.03;100.00
7614;BME280;3848;42.016;23.098;2023-03-04T11:43:41;96942.94;;;10.96;100.00
7614;BME280;3848;42.016;23.098;2023-03-04T11:46:35;96945.56;;;10.92;100.00
7614;BME280;3848;42.016;23.098;2023-03-04T11:52:24;96942.09;;;10.97;100.00
7614;BME280;3848;42.016;23.098;2023-03-04T11:55:04;96933.66;;;10.95;100.00
7614;BME280;3848;42.016;23.098;2023-03-04T11:57:46;96932.78;;;10.96;100.00
7614;BME280;3848;42.016;23.098;2023-03-04T12:00:31;96932.81;;;10.95;100.00
7614;BME280;3848;42.016;23.098;2023-03-04T12:03:20;96924.97;;;11.10;100.00
7614;BME280;3848;42.016;23.098;2023-03-04T12:05:57;96924.25;;;11.00;100.00
7614;BME280;3848;42.016;23.098;2023-03-04T12:08:38;96930.03;;;11.12;100.00
7614;BME280;3848;42.016;23.098;2023-03-04T12:11:16;96924.16;;;11.10;100.00
7614;BME280;3848;42.016;23.098;2023-03-04T12:14:11;96921.34;;;11.28;100.00
7614;BME280;3848;42.016;23.098;2023-03-04T12:17:04;96914.31;;;11.45;100.00
7614;BME280;3848;42.016;23.098;2023-03-04T12:19:45;96915.81;;;11.57;100.00
7614;BME280;3848;42.016;23.098;2023-03-04T12:22:25;96913.94;;;11.70;100.00
7614;BME280;3848;42.016;23.098;2023-03-04T12:25:17;96908.69;;;11.80;100.00
7614;BME280;3848;42.016;23.098;2023-03-04T12:27:57;96898.53;;;11.79;100.00
7614;BME280;3848;42.016;23.098;2023-03-04T12:30:40;96907.59;;;11.95;100.00
7614;BME280;3848;42.016;23.098;2023-03-04T12:33:20;96888.22;;;11.88;100.00
7614;BME280;3848;42.016;23.098;2023-03-04T12:35:52;96901.53;;;12.02;100.00
7614;BME280;3848;42.016;23.098;2023-03-04T12:38:34;96876.13;;;11.99;100.00
7614;BME280;3848;42.016;23.098;2023-03-04T12:41:18;96881.03;;;12.10;100.00
7614;BME280;3848;42.016;23.098;2023-03-04T12:43:53;96884.34;;;12.13;100.00
7614;BME280;3848;42.016;23.098;2023-03-04T12:46:34;96875.19;;;12.03;100.00
7614;BME280;3848;42.016;23.098;2023-03-04T12:49:37;96877.38;;;12.23;100.00
7614;BME280;3848;42.016;23.098;2023-03-04T12:52:14;96870.34;;;12.36;100.00
7614;BME280;3848;42.016;23.098;2023-03-04T12:54:44;96873.09;;;12.67;100.00
7614;BME280;3848;42.016;23.098;2023-03-04T12:57:13;96864.03;;;12.95;100.00
7614;BME280;3848;42.016;23.098;2023-03-04T12:59:47;96858.97;;;12.94;100.00
7614;BME280;3848;42.016;23.098;2023-03-04T13:05:23;96864.63;;;13.06;100.00
7614;BME280;3848;42.016;23.098;2023-03-04T13:07:58;96853.06;;;12.92;100.00
7614;BME280;3848;42.016;23.098;2023-03-04T13:10:27;96850.63;;;12.86;100.00
7614;BME280;3848;42.016;23.098;2023-03-04T13:12:55;96851.88;;;12.66;100.00
7614;BME280;3848;42.016;23.098;2023-03-04T13:15:29;96848.59;;;12.61;100.00
7614;BME280;3848;42.016;23.098;2023-03-04T13:17:57;96839.78;;;12.36;100.00
7614;BME280;3848;42.016;23.098;2023-03-04T13:20:36;96851.00;;;12.26;100.00
7614;BME280;3848;42.016;23.098;2023-03-04T13:23:26;96845.91;;;12.26;100.00
7614;BME280;3848;42.016;23.098;2023-03-04T13:26:19;96845.09;;;12.24;100.00
7614;BME280;3848;42.016;23.098;2023-03-04T13:28:52;96842.88;;;12.05;100.00
7614;BME280;3848;42.016;23.098;2023-03-04T13:31:24;96833.81;;;11.92;100.00
7614;BME280;3848;42.016;23.098;2023-03-04T13:34:03;96840.78;;;11.81;100.00